Latest Weather Observations for Luncheon Hill

IDT60801

Issued at 5:02 pm EST Saturday 2 July 2016 (issued every 30 minutes, with the page automatically refreshed every 10 minutes)

About weather observations | Map of weather stations | Latest weather observations for TAS | Other Formats
Station Details ID: 091259 Name: LUNCHEON HILL (FORESTRY) Lat: -41.15 Lon: 145.15 Height: 344.0 m
Data from the previous 72 hours. | See also: Recent months at Luncheon Hill
Date/Time
EST
Temp
°C
App
Temp
°C
Dew
Point
°C
Rel
Hum
%
Delta-T
°C
Wind Press
QNH
hPa
Press
MSL
hPa
Rain since
9am
mm
Dir  Spd
km/h
Gust
km/h
Spd
kts
Gust
kts
02/05:00pm 8.4 3.8 8.0 97 0.2 WSW 22 39 12 21 - - 2.8
02/04:30pm 8.6 4.4 8.2 97 0.2 WSW 20 35 11 19 - - 2.8
02/04:00pm 9.0 4.8 8.4 96 0.3 W 20 39 11 21 - - 2.6
02/03:30pm 9.2 4.3 8.3 94 0.4 W 24 37 13 20 - - 2.2
02/03:00pm 9.2 5.5 8.0 92 0.6 WSW 17 37 9 20 - - 2.0
02/02:30pm 9.1 5.0 7.9 92 0.6 W 19 30 10 16 - - 2.0
02/02:00pm 9.0 5.0 8.2 95 0.4 W 19 30 10 16 - - 2.0
02/01:30pm 8.9 4.0 8.5 97 0.2 WSW 24 44 13 24 - - 2.0
02/01:00pm 9.2 4.8 9.1 99 0.1 WSW 22 35 12 19 - - 2.0
02/12:30pm 9.4 6.0 9.3 99 0.1 SW 17 26 9 14 - - 1.8
02/12:00pm 9.1 5.1 9.0 99 0.0 WSW 20 32 11 17 - - 1.8
02/11:30am 9.6 5.9 9.5 99 0.1 WSW 19 33 10 18 - - 0.4
02/11:00am 9.7 6.4 9.7 100 0.0 WSW 17 26 9 14 - - 0.4
02/10:30am 9.1 5.7 9.1 100 0.0 SW 17 28 9 15 - - 0.4
02/10:00am 8.5 4.0 8.5 100 0.0 WSW 22 39 12 21 - - 0.4
02/09:30am 8.2 3.6 8.2 100 0.0 WSW 22 41 12 22 - - 0.2
02/09:00am 8.4 4.8 8.4 100 0.0 WSW 17 24 9 13 - - 9.2
02/08:30am 8.4 4.8 8.4 100 0.0 WSW 17 26 9 14 - - 8.8
02/08:00am 8.2 4.0 8.2 100 0.0 WSW 20 37 11 20 - - 8.8
02/07:30am 8.4 4.4 8.4 100 0.0 WSW 19 32 10 17 - - 8.8
02/07:00am 8.5 4.6 8.5 100 0.0 WSW 19 35 10 19 - - 7.6
02/06:30am 8.2 5.3 8.2 100 0.0 WSW 13 26 7 14 - - 7.4
02/06:00am 8.1 3.5 8.1 100 0.0 W 22 33 12 18 - - 7.2
02/05:30am 8.3 4.7 8.3 100 0.0 WSW 17 28 9 15 - - 6.8
02/05:00am 8.5 4.6 8.5 100 0.0 W 19 28 10 15 - - 6.8
02/04:30am 8.5 4.9 8.5 100 0.0 W 17 26 9 14 - - 6.8
02/04:00am 8.5 4.9 8.5 100 0.0 W 17 28 9 15 - - 6.8
02/03:30am 8.4 4.2 8.4 100 0.0 WSW 20 32 11 17 - - 6.8
02/03:00am 8.4 3.9 8.4 100 0.0 W 22 43 12 23 - - 6.8
02/02:30am 8.3 4.3 8.3 100 0.0 W 19 26 10 14 - - 6.6
02/02:00am 8.2 4.6 8.2 100 0.0 WNW 17 22 9 12 - - 6.6
02/01:30am 8.2 4.6 8.2 100 0.0 W 17 24 9 13 - - 6.2
02/01:00am 8.1 4.4 8.1 100 0.0 WSW 17 35 9 19 - - 6.2
02/12:30am 8.0 3.9 8.0 100 0.0 W 19 32 10 17 - - 6.0
02/12:00am 8.2 5.3 8.2 100 0.0 W 13 20 7 11 - - 5.4
 
Date/Time
EST
Temp
°C
App
Temp
°C
Dew
Point
°C
Rel
Hum
%
Delta-T
°C
Wind Press
QNH
hPa
Press
MSL
hPa
Rain since
9am
mm
Dir  Spd
km/h
Gust
km/h
Spd
kts
Gust
kts
01/11:30pm 8.4 5.2 8.4 100 0.0 W 15 20 8 11 - - 5.4
01/11:00pm 8.0 5.1 8.0 100 0.0 WSW 13 22 7 12 - - 5.2
01/10:30pm 8.4 4.8 8.4 100 0.0 WSW 17 30 9 16 - - 5.2
01/10:00pm 8.3 5.4 8.2 99 0.0 W 13 19 7 10 - - 4.6
01/09:30pm 8.4 5.2 8.3 99 0.0 WSW 15 22 8 12 - - 4.6
01/09:00pm 8.7 5.6 8.7 100 0.0 W 15 22 8 12 - - 4.6
01/08:30pm 8.7 5.5 8.6 99 0.0 W 15 24 8 13 - - 4.4
01/08:00pm 8.7 5.5 8.6 99 0.0 WNW 15 20 8 11 - - 4.4
01/07:30pm 8.5 4.0 8.4 99 0.0 WNW 22 30 12 16 - - 3.4
01/07:00pm 8.4 5.2 8.3 99 0.0 W 15 22 8 12 - - 3.4
01/06:30pm 8.3 4.7 8.2 99 0.0 W 17 26 9 14 - - 3.4
01/06:00pm 8.5 4.5 8.4 99 0.0 WNW 19 35 10 19 - - 3.0
01/05:30pm 8.4 5.2 8.3 99 0.0 WNW 15 20 8 11 - - 2.4
01/05:00pm 8.4 5.9 8.1 98 0.1 W 11 19 6 10 - - 1.6
01/04:30pm 8.4 5.5 8.1 98 0.1 W 13 22 7 12 - - 1.6
01/04:00pm 8.5 5.6 8.2 98 0.1 WSW 13 24 7 13 - - 1.6
01/03:30pm 8.5 4.8 8.1 97 0.2 WSW 17 26 9 14 - - 1.6
01/03:00pm 8.7 4.7 8.1 96 0.3 WSW 19 32 10 17 - - 1.0
01/02:30pm 8.7 5.0 8.1 96 0.3 WSW 17 28 9 15 - - 1.0
01/02:00pm 8.5 4.7 7.4 93 0.5 SW 17 32 9 17 - - 1.0
01/01:30pm 8.4 3.7 7.6 95 0.4 WSW 22 35 12 19 - - 0.8
01/01:00pm 8.5 4.4 7.9 96 0.3 WSW 19 32 10 17 - - 0.8
01/12:30pm 9.4 5.7 8.0 91 0.7 WSW 17 28 9 15 - - 0.0
01/12:00pm 8.3 4.4 7.1 92 0.6 WSW 17 35 9 19 - - 0.0
01/11:30am 8.8 4.7 6.4 85 1.1 SW 17 30 9 16 - - 0.0
01/11:00am 8.2 4.1 6.2 87 0.9 WSW 17 26 9 14 - - 0.0
01/10:30am 7.5 3.3 5.5 87 0.9 SW 17 26 9 14 - - 0.0
01/10:00am 6.9 2.6 5.1 88 0.8 SW 17 24 9 13 - - 0.0
01/09:30am 6.6 2.2 4.9 89 0.8 SW 17 26 9 14 - - 0.0
01/09:00am 6.4 1.7 6.0 97 0.2 SW 20 32 11 17 - - 12.8
01/08:30am 6.4 1.9 6.3 99 0.0 SW 19 33 10 18 - - 12.8
01/08:00am 6.5 1.5 6.4 99 0.0 SW 22 33 12 18 - - 12.8
01/07:30am 6.7 1.4 6.6 99 0.0 SW 24 39 13 21 - - 12.8
01/07:00am 6.8 1.1 6.7 99 0.0 SW 26 39 14 21 - - 12.6
01/06:30am 6.6 1.6 6.3 98 0.1 SW 22 35 12 19 - - 12.6
01/06:00am 6.2 1.4 5.8 97 0.2 SW 20 32 11 17 - - 12.4
01/05:30am 6.1 0.5 5.5 96 0.3 SSW 24 32 13 17 - - 12.4
01/05:00am 6.0 1.2 5.4 96 0.3 SSW 20 28 11 15 - - 12.4
01/04:30am 6.0 1.2 5.7 98 0.1 SSW 20 28 11 15 - - 12.4
01/04:00am 6.2 1.1 6.1 99 0.0 SW 22 30 12 16 - - 12.4
01/03:30am 6.0 1.3 5.9 99 0.0 SSW 20 28 11 15 - - 12.4
01/03:00am 5.9 1.1 5.8 99 0.0 SSW 20 26 11 14 - - 12.4
01/02:30am 6.2 1.5 6.1 99 0.0 SSW 20 28 11 15 - - 12.4
01/02:00am 5.9 1.7 5.8 99 0.0 S 17 20 9 11 - - 12.4
01/01:30am 6.1 1.4 6.0 99 0.0 S 20 28 11 15 - - 12.4
01/01:00am 5.9 0.4 5.9 100 0.0 SSW 24 30 13 16 - - 12.2
01/12:30am 5.8 0.7 5.8 100 0.0 SSW 22 32 12 17 - - 12.2
01/12:00am 5.6 1.4 5.6 100 0.0 S 17 24 9 13 - - 12.2
 
Date/Time
EST
Temp
°C
App
Temp
°C
Dew
Point
°C
Rel
Hum
%
Delta-T
°C
Wind Press
QNH
hPa
Press
MSL
hPa
Rain since
9am
mm
Dir  Spd
km/h
Gust
km/h
Spd
kts
Gust
kts
30/11:30pm 5.7 2.3 5.7 100 0.0 SSW 13 15 7 8 - - 12.2
30/11:00pm 6.0 2.6 6.0 100 0.0 S 13 20 7 11 - - 12.2
30/10:30pm 6.2 2.5 6.2 100 0.0 SW 15 20 8 11 - - 12.2
30/10:00pm 6.4 3.5 6.4 100 0.0 SW 11 13 6 7 - - 12.2
30/09:30pm 6.8 4.9 6.8 100 0.0 NE 6 7 3 4 - - 12.2
30/09:00pm 6.9 4.1 6.9 100 0.0 ENE 11 13 6 7 - - 12.2
30/08:30pm 6.7 4.2 6.7 100 0.0 ESE 9 11 5 6 - - 12.2
30/08:00pm 6.8 3.6 6.8 100 0.0 SSE 13 20 7 11 - - 12.2
30/07:30pm 7.2 4.1 7.2 100 0.0 SE 13 20 7 11 - - 12.2
30/07:00pm 7.3 4.6 7.3 100 0.0 ENE 11 13 6 7 - - 12.2
30/06:30pm 7.5 5.6 7.5 100 0.0 NNE 7 9 4 5 - - 12.0
30/06:00pm 7.7 4.7 7.7 100 0.0 N 13 15 7 8 - - 12.0
30/05:30pm 8.2 4.2 8.2 100 0.0 N 19 24 10 13 - - 11.8
30/05:00pm 8.2 4.0 8.2 100 0.0 N 20 30 11 16 - - 11.6
30/04:30pm 8.2 3.2 8.2 100 0.0 N 24 32 13 17 - - 11.4
30/04:00pm 8.2 2.5 8.2 100 0.0 N 28 37 15 20 - - 11.4
30/03:30pm 8.2 2.1 8.2 100 0.0 N 30 39 16 21 - - 10.8
30/03:00pm 8.3 1.8 8.3 100 0.0 NNW 32 43 17 23 - - 10.2
30/02:30pm 8.3 1.8 8.3 100 0.0 NNW 32 41 17 22 - - 10.0
30/02:00pm 8.2 1.5 8.2 100 0.0 NNW 33 46 18 25 - - 10.0
30/01:30pm 8.1 1.4 8.1 100 0.0 NNW 33 46 18 25 - - 9.8
30/01:19pm 8.0 1.5 8.0 100 0.0 NNW 32 50 17 27 - - 9.6
30/01:00pm 8.0 1.5 8.0 100 0.0 NNW 32 46 17 25 - - 9.0
30/12:40pm 8.0 1.5 8.0 100 0.0 N 32 50 17 27 - - 8.2
30/12:30pm 8.0 0.9 8.0 100 0.0 N 35 48 19 26 - - 7.8
30/12:00pm 7.9 0.8 7.9 100 0.0 N 35 56 19 30 - - 6.8
30/11:30am 7.8 -0.5 7.7 99 0.0 N 41 59 22 32 - - 5.8
30/11:27am 7.8 -0.5 7.7 99 0.0 N 41 59 22 32 - - 5.8
30/11:00am 7.8 -0.1 7.7 99 0.0 N 39 54 21 29 - - 4.4
30/10:30am 7.7 -1.0 7.6 99 0.0 N 43 61 23 33 - - 3.4
30/10:21am 7.7 -1.0 7.6 99 0.0 N 43 61 23 33 - - 3.0
30/10:00am 7.7 0.1 7.6 99 0.0 N 37 46 20 25 - - 2.2
30/09:53am 7.8 -0.5 7.7 99 0.0 N 41 59 22 32 - - 1.8
30/09:30am 7.7 -0.6 7.6 99 0.0 N 41 56 22 30 - - 1.0
30/09:00am 7.6 0.4 7.5 99 0.0 N 35 44 19 24 - - 7.6
30/08:30am 7.6 0.3 7.3 98 0.1 N 35 44 19 24 - - 6.6
30/08:00am 7.7 -1.3 7.3 97 0.2 N 44 72 24 39 - - 6.0
30/07:48am 7.7 -0.3 7.3 97 0.2 N 39 57 21 31 - - 5.6
30/07:30am 7.8 -0.6 7.4 97 0.2 N 41 56 22 30 - - 5.2
30/07:11am 7.7 0.0 7.3 97 0.2 N 37 56 20 30 - - 5.0
30/07:00am 7.6 -0.5 7.2 97 0.2 N 39 52 21 28 - - 5.0
30/06:30am 7.8 -1.0 7.2 96 0.3 N 43 59 23 32 - - 4.6
30/06:16am 7.8 -0.6 7.2 96 0.3 N 41 59 22 32 - - 4.6
30/06:00am 7.9 -0.8 7.5 97 0.2 N 43 56 23 30 - - 4.4
30/05:48am 7.8 -0.2 7.5 98 0.1 N 39 59 21 32 - - 4.4
30/05:30am 7.5 0.8 7.2 98 0.1 N 32 46 17 25 - - 4.4
30/05:00am 7.3 -0.4 7.0 98 0.1 N 37 52 20 28 - - 4.2
30/04:33am 7.2 -1.3 6.9 98 0.1 N 41 59 22 32 - - 4.0
30/04:30am 7.3 -1.6 7.0 98 0.1 N 43 59 23 32 - - 4.0
30/04:05am 7.3 -0.8 7.0 98 0.1 N 39 59 21 32 - - 3.8
30/04:00am 7.4 -0.7 7.0 97 0.2 N 39 50 21 27 - - 3.4
30/03:39am 7.5 1.1 6.9 96 0.3 N 30 50 16 27 - - 2.6
30/03:30am 7.5 0.7 6.8 95 0.3 N 32 41 17 22 - - 2.2
30/03:00am 8.1 -0.9 6.4 89 0.8 N 43 61 23 33 - - 1.4
30/02:51am 8.6 -0.1 6.1 84 1.2 N 41 61 22 33 - - 1.4
30/02:30am 8.4 0.8 6.0 85 1.1 N 35 44 19 24 - - 1.4
30/02:00am 8.4 0.4 5.9 84 1.2 N 37 52 20 28 - - 1.4
30/01:30am 8.2 0.6 5.8 85 1.1 N 35 46 19 25 - - 1.4
30/01:03am 8.1 1.1 5.9 86 1.0 N 32 52 17 28 - - 1.4
30/01:00am 8.2 1.0 6.0 86 1.0 NNE 33 43 18 23 - - 1.4
30/12:30am 8.1 1.0 5.7 85 1.1 N 32 43 17 23 - - 1.4
30/12:00am 7.9 0.3 5.9 87 0.9 N 35 48 19 26 - - 1.4
 
Date/Time
EST
Temp
°C
App
Temp
°C
Dew
Point
°C
Rel
Hum
%
Delta-T
°C
Wind Press
QNH
hPa
Press
MSL
hPa
Rain since
9am
mm
Dir  Spd
km/h
Gust
km/h
Spd
kts
Gust
kts
29/11:30pm 8.0 0.7 5.5 84 1.1 N 33 44 18 24 - - 1.4
29/11:00pm 8.2 0.5 5.5 83 1.2 N 35 46 19 25 - - 1.4
29/10:30pm 8.1 1.1 6.1 87 0.9 N 32 41 17 22 - - 1.4
29/10:05pm 8.4 1.4 6.7 89 0.8 N 33 52 18 28 - - 1.4
29/10:00pm 8.3 1.3 6.8 90 0.7 N 33 48 18 26 - - 1.4
29/09:30pm 8.1 2.2 7.7 97 0.2 N 28 35 15 19 - - 1.4
29/09:00pm 8.0 2.5 7.6 97 0.2 NNE 26 32 14 17 - - 1.2
29/08:30pm 8.1 1.9 7.7 97 0.2 NNE 30 35 16 19 - - 1.2
29/08:00pm 7.8 2.3 7.4 97 0.2 NNE 26 30 14 16 - - 1.2
29/07:30pm 7.8 2.6 7.4 97 0.2 NNE 24 30 13 16 - - 1.2
29/07:00pm 7.8 3.0 7.5 98 0.1 N 22 30 12 16 - - 1.2
29/06:30pm 8.2 3.9 7.9 98 0.1 N 20 26 11 14 - - 1.2
29/06:00pm 8.3 4.0 8.0 98 0.1 NNE 20 26 11 14 - - 1.2
29/05:30pm 8.7 4.7 8.4 98 0.1 N 19 24 10 13 - - 1.2

Other Formats:

Comma delimited format used in spreadsheet applications
http://www.bom.gov.au/fwo/IDT60801/IDT60801.95956.axf

JavaScript Object Notation format (JSON) in row-major order
http://www.bom.gov.au/fwo/IDT60801/IDT60801.95956.json